Poway (476, 175, 178, 648) Station Data

Red Flag Warning: No
Fire Weather Zone: 250
SDGE Region: North East
Lat/Lon: 32.982/-117.04

Observations

Time Wind Speed/Gust Temp(F) RH Fuel Moist Fuel Temp(F) Dewpt(F) Tmax(F) Tmin(F) Accum Precip 10-min Precip SL Press(mb)
4/26 2:50am 74 1 G 2 54° 76% - - 46° 57.8° 52.7° - - -
4/26 2:40am 31 1 G 2 56° 71% - - 47° 57.8° 52.7° - - -
4/26 2:30am 25 1 G 2 55° 73% - - 46° 57.8° 52.7° - - -
4/26 2:20am 33 1 G 2 56° 70% - - 46° 57.8° 52.7° - - -
4/26 2:10am 16 1 G 2 54° 75% - - 46° 57.8° 52.7° - - -
4/26 2:00am 0 0 G 0 53° 74% - - 45° 57.8° 52.8° - - -
4/26 1:50am 272 0 G 2 56° 67% - - 46° 57.8° 53.3° - - -
4/26 1:40am 357 1 G 3 57° 68% - - 46° 57.8° 53.3° - - -
4/26 1:30am 21 1 G 2 55° 70% - - 46° 57.8° 53.3° - - -
4/26 1:20am 39 1 G 3 54° 72% - - 46° 57.8° 53.3° - - -
4/26 1:10am 67 0 G 1 55° 71% - - 45° 57.8° 53.7° - - -
4/26 1:00am 66 1 G 2 56° 69% - - 46° 57.8° 54.5° - - -
4/26 12:50am 334 1 G 3 56° 69% - - 46° 57.8° 54.5° - - -
4/26 12:40am 50 1 G 2 55° 70% - - 46° 57.8° 54.5° - - -
4/26 12:30am 236 0 G 2 56° 69% - - 46° 57.8° 55.3° - - -
4/26 12:20am 317 0 G 1 57° 66% - - 46° 57.8° 56.3° - - -
4/26 12:10am 63 0 G 1 57° 66% - - 46° 57.8° 56.8° - - -
4/26 12:00am 27 1 G 2 57° 67% - - 46° 69.3° 54.5° - - -
4/25 11:50pm 42 1 G 2 55° 72% - - 46° 69.3° 54.5° - - -
4/25 11:40pm 48 1 G 2 56° 69% - - 46° 69.3° 55.2° - - -
4/25 11:30pm 97 0 G 1 57° 66% - - 46° 69.3° 56.2° - - -
4/25 11:20pm 272 0 G 2 57° 67% - - 46° 69.3° 56.5° - - -
4/25 11:10pm 0 0 G 0 57° 66% - - 46° 69.3° 56.5° - - -
4/25 11:00pm 0 0 G 0 58° 65% - - 47° 69.3° 56.5° - - -
4/25 10:50pm 278 0 G 2 58° 66% - - 47° 69.3° 56.5° - - -
4/25 10:40pm 32 1 G 3 57° 68% - - 47° 69.3° 56.5° - - -
4/25 10:30pm 63 1 G 2 57° 71% - - 48° 69.3° 56.5° - - -
4/25 10:20pm 47 2 G 3 57° 70% - - 48° 69.3° 56.5° - - -
4/25 10:10pm 53 1 G 2 58° 69% - - 48° 69.3° 56.5° - - -
4/25 10:00pm 13 1 G 2 58° 69% - - 48° 69.3° 56.5° - - -
4/25 9:50pm 8 1 G 2 59° 68% - - 48° 69.3° 56.5° - - -
4/25 9:40pm 297 3 G 4 60° 67% - - 49° 69.3° 56.5° - - -
4/25 9:30pm 311 2 G 3 60° 65% - - 48° 69.3° 56.5° - - -
4/25 9:20pm 354 2 G 3 59° 66% - - 48° 69.3° 56.5° - - -
4/25 9:10pm 120 1 G 3 60° 63% - - 47° 69.3° 56.5° - - -
4/25 9:00pm 299 2 G 2 61° 60% - - 47° 69.3° 56.5° - - -
4/25 8:50pm 328 2 G 3 60° 60% - - 46° 69.3° 56.5° - - -
4/25 8:40pm 329 2 G 3 61° 57% - - 46° 69.3° 56.5° - - -
4/25 8:30pm 313 1 G 2 61° 57% - - 46° 69.3° 56.5° - - -
4/25 8:20pm 320 2 G 2 61° 58% - - 46° 69.3° 56.5° - - -
4/25 8:10pm 307 2 G 3 61° 60% - - 47° 69.3° 56.5° - - -
4/25 8:00pm 281 2 G 2 61° 64% - - 49° 69.3° 56.5° - - -
4/25 7:50pm 320 1 G 2 61° 65% - - 49° 69.3° 56.5° - - -
4/25 7:40pm 2 1 G 2 61° 66% - - 50° 69.3° 56.5° - - -
4/25 7:30pm 318 1 G 2 61° 65% - - 49° 69.3° 56.5° - - -
4/25 7:20pm 266 1 G 3 62° 64% - - 49° 69.3° 56.5° - - -
4/25 7:10pm 260 1 G 4 62° 63% - - 49° 69.3° 56.5° - - -
4/25 7:00pm 280 2 G 4 62° 62% - - 49° 69.3° 56.5° - - -
4/25 6:50pm 283 3 G 7 62° 60% - - 48° 69.3° 56.5° - - -
4/25 6:40pm 270 2 G 6 63° 59% - - 49° 69.3° 56.5° - - -
4/25 6:30pm 275 3 G 8 63° 60% - - 49° 69.3° 56.5° - - -
4/25 6:20pm 260 4 G 9 63° 59% - - 48° 69.3° 56.5° - - -
4/25 6:10pm 254 5 G 9 63° 59% - - 48° 69.3° 56.5° - - -
4/25 6:00pm 246 5 G 10 64° 58% - - 49° 69.3° 56.5° - - -
4/25 5:50pm 244 4 G 9 64° 58% - - 49° 69.3° 56.5° - - -
4/25 5:40pm 248 6 G 12 64° 58% - - 49° 69.3° 56.5° - - -
4/25 5:30pm 255 6 G 11 65° 57% - - 49° 69.3° 56.5° - - -
4/25 5:20pm 248 8 G 13 65° 56% - - 49° 69.3° 56.5° - - -
4/25 5:10pm 254 6 G 12 66° 55% - - 49° 69.3° 56.5° - - -
4/25 5:00pm 259 5 G 10 66° 55% - - 49° 69.3° 56.5° - - -
4/25 4:50pm 262 5 G 12 65° 55% - - 49° 69.3° 56.5° - - -
4/25 4:40pm 251 6 G 13 66° 56% - - 50° 69.3° 56.5° - - -
4/25 4:30pm 255 6 G 13 66° 58% - - 51° 69.3° 56.5° - - -
4/25 4:20pm 243 6 G 12 67° 59% - - 52° 69.3° 56.5° - - -
4/25 4:10pm 244 7 G 12 66° 60% - - 52° 69.3° 56.5° - - -
4/25 4:00pm 252 6 G 11 66° 58% - - 51° 69.3° 56.5° - - -
4/25 3:50pm 248 6 G 11 67° 57% - - 51° 69.3° 56.5° - - -
4/25 3:40pm 253 6 G 14 67° 59% - - 52° 69.3° 56.5° - - -
4/25 3:30pm 260 5 G 10 67° 58% - - 52° 69.3° 56.5° - - -
4/25 3:20pm 253 7 G 14 67° 58% - - 52° 69.3° 56.5° - - -
4/25 3:10pm 233 7 G 13 66° 58% - - 51° 69.3° 56.5° - - -
4/25 3:00pm 237 9 G 15 66° 58% - - 51° 69.3° 56.5° - - -
4/25 2:50pm 225 7 G 12 67° 56% - - 51° 69.3° 56.5° - - -
4/25 2:40pm 228 7 G 12 67° 55% - - 51° 69.3° 56.5° - - -
4/25 2:30pm 262 4 G 10 68° 55% - - 51° 69.3° 56.5° - - -
4/25 2:20pm 261 4 G 11 68° 56% - - 51° 69.3° 56.5° - - -
4/25 2:10pm 242 6 G 12 67° 56% - - 51° 69.3° 56.5° - - -
4/25 2:00pm 240 5 G 13 67° 57% - - 51° 69.3° 56.5° - - -
4/25 1:50pm 250 7 G 14 67° 56% - - 51° 69.3° 56.5° - - -
4/25 1:40pm 261 6 G 14 66° 59% - - 52° 69.3° 56.5° - - -
4/25 1:30pm 256 6 G 12 66° 60% - - 52° 69.3° 56.5° - - -
4/25 1:20pm 243 7 G 14 67° 59% - - 52° 69.3° 56.5° - - -
4/25 1:10pm 236 6 G 11 68° 56% - - 52° 69.3° 56.5° - - -
4/25 1:00pm 236 7 G 14 67° 58% - - 52° 68.5° 56.5° - - -
4/25 12:50pm 237 7 G 14 67° 59% - - 52° 68.5° 56.5° - - -
4/25 12:40pm 234 8 G 13 67° 58% - - 52° 68.5° 56.5° - - -
4/25 12:30pm 236 9 G 16 67° 60% - - 53° 68.5° 56.5° - - -
4/25 12:20pm 233 10 G 17 67° 60% - - 53° 68.5° 56.5° - - -
4/25 12:10pm 236 8 G 14 67° 59% - - 52° 68.5° 56.5° - - -
4/25 12:00pm 248 7 G 16 68° 55% - - 51° 68.5° 56.5° - - -
4/25 11:50am 236 6 G 11 67° 55% - - 51° 68.5° 56.5° - - -
4/25 11:40am 226 5 G 10 67° 54% - - 50° 68.5° 56.5° - - -
4/25 11:30am 222 4 G 8 67° 55% - - 51° 68.5° 56.5° - - -
4/25 11:20am 238 5 G 11 67° 57% - - 51° 67.6° 56.5° - - -
4/25 11:10am 204 6 G 11 66° 60% - - 51° 66.5° 56.5° - - -
4/25 11:00am 160 4 G 10 65° 59% - - 51° 66° 56.5° - - -
4/25 10:50am 217 6 G 9 65° 61% - - 51° 66° 56.5° - - -
4/25 10:40am 169 4 G 11 65° 60% - - 51° 65.7° 56.5° - - -
4/25 10:30am 210 5 G 9 64° 63% - - 51° 64.5° 56.5° - - -
4/25 10:20am 218 6 G 10 63° 67% - - 52° 64.2° 56.5° - - -
4/25 10:10am 193 4 G 11 63° 65% - - 51° 64.2° 56.5° - - -
4/25 10:00am 177 4 G 7 63° 65% - - 51° 64.2° 56.5° - - -
4/25 9:50am 206 6 G 11 61° 71% - - 52° 62.6° 56.5° - - -
4/25 9:40am 206 6 G 11 62° 70% - - 52° 62.6° 56.5° - - -
4/25 9:30am 206 3 G 7 62° 69% - - 52° 62.6° 56.5° - - -
4/25 9:20am 202 3 G 7 61° 72% - - 52° 62° 56.5° - - -
4/25 9:10am 181 4 G 8 60° 74% - - 52° 60.5° 56.5° - - -
4/25 9:00am 201 4 G 8 60° 76% - - 52° 60.4° 56.5° - - -
4/25 8:50am 216 4 G 8 60° 77% - - 52° 60.4° 56.5° - - -
4/25 8:40am 184 4 G 8 59° 78% - - 52° 59.8° 56.5° - - -
4/25 8:30am 172 5 G 8 59° 79% - - 52° 59.7° 56.5° - - -
4/25 8:20am 186 4 G 8 59° 80% - - 52° 59.5° 56.5° - - -
4/25 8:10am 207 4 G 6 58° 81% - - 52° 58.9° 56.5° - - -
4/25 8:00am 193 3 G 7 58° 82% - - 53° 58.6° 56.5° - - -
4/25 7:50am 155 3 G 6 58° 83% - - 52° 58.6° 56.5° - - -
4/25 7:40am 160 3 G 5 57° 84% - - 52° 58.6° 56.5° - - -
4/25 7:30am 151 3 G 5 57° 84% - - 53° 58.6° 56.5° - - -
4/25 7:20am 162 3 G 6 57° 84% - - 53° 58.6° 56.5° - - -
4/25 7:10am 172 3 G 6 57° 85% - - 52° 58.6° 56.5° - - -
4/25 7:00am 164 4 G 8 57° 85% - - 52° 58.6° 56.5° - - -
4/25 6:50am 172 4 G 7 57° 85% - - 52° 58.6° 56.5° - - -
4/25 6:40am 176 4 G 7 57° 84% - - 52° 58.6° 56.6° - - -
4/25 6:30am 201 5 G 9 57° 85% - - 52° 58.6° 56.6° - - -
4/25 6:20am 173 4 G 7 57° 85% - - 52° 58.6° 56.6° - - -
4/25 6:10am 153 3 G 6 57° 85% - - 52° 58.6° 56.7° - - -
4/25 6:00am 178 4 G 7 57° 85% - - 52° 58.6° 56.7° - - -
4/25 5:50am 165 4 G 6 57° 85% - - 52° 58.6° 56.7° - - -
4/25 5:40am 165 4 G 8 57° 85% - - 53° 58.6° 56.7° - - -
4/25 5:30am 163 4 G 8 57° 84% - - 52° 58.6° 56.7° - - -
4/25 5:20am 176 4 G 8 57° 84% - - 52° 58.6° 56.7° - - -
4/25 5:10am 166 5 G 8 57° 84% - - 52° 58.6° 56.7° - - -
4/25 5:00am 187 5 G 9 57° 83% - - 52° 58.6° 56.9° - - -
4/25 4:50am 186 4 G 7 57° 82% - - 52° 58.6° 56.9° - - -
4/25 4:40am 176 4 G 8 57° 82% - - 52° 58.6° 56.9° - - -
4/25 4:30am 186 5 G 8 57° 80% - - 51° 58.6° 56.9° - - -
4/25 4:20am 185 4 G 9 57° 79% - - 51° 58.6° 56.9° - - -
4/25 4:10am 201 5 G 8 58° 78% - - 51° 58.6° 56.9° - - -
4/25 4:00am 185 4 G 7 58° 77% - - 51° 58.6° 56.9° - - -
4/25 3:50am 187 4 G 8 58° 78% - - 51° 58.6° 56.9° - - -
4/25 3:40am 182 3 G 8 58° 78% - - 51° 58.6° 56.9° - - -
4/25 3:30am 188 3 G 7 57° 78% - - 51° 58.6° 56.9° - - -
4/25 3:20am 172 3 G 5 57° 79% - - 51° 58.6° 56.9° - - -
4/25 3:10am 197 3 G 6 57° 79% - - 51° 58.6° 56.9° - - -
4/25 3:00am 195 5 G 8 57° 79% - - 51° 58.6° 56.9° - - -
4/25 2:50am 195 5 G 8 57° 79% - - 51° 58.6° 57° - - -
4/25 2:40am 205 5 G 9 57° 80% - - 51° 58.6° 57.1° - - -
4/25 2:30am 218 6 G 9 57° 80% - - 51° 58.6° 57.1° - - -
4/25 2:20am 206 6 G 10 58° 80% - - 52° 58.6° 57.1° - - -
4/25 2:10am 209 6 G 9 58° 81% - - 52° 58.6° 57.3° - - -
4/25 2:00am 204 5 G 10 58° 81% - - 52° 58.6° 57.3° - - -
4/25 1:50am 211 6 G 11 58° 82% - - 52° 58.6° 57.3° - - -
4/25 1:40am 201 5 G 10 58° 81% - - 52° 58.6° 57.3° - - -
4/25 1:30am 198 6 G 11 58° 81% - - 52° 58.6° 57.3° - - -
4/25 1:20am 207 6 G 11 58° 80% - - 52° 58.6° 57.3° - - -
4/25 1:10am 199 4 G 7 58° 79% - - 51° 58.4° 57.3° - - -
4/25 1:00am 205 6 G 9 58° 79% - - 51° 58.4° 57.3° - - -
4/25 12:50am 201 5 G 8 58° 79% - - 51° 58.3° 57.3° - - -
4/25 12:40am 200 5 G 10 58° 78% - - 51° 58.3° 57.3° - - -
4/25 12:30am 204 4 G 7 58° 78% - - 51° 58.3° 57.3° - - -
4/25 12:20am 181 3 G 5 58° 78% - - 51° 58.2° 57.3° - - -
4/25 12:10am 167 3 G 5 58° 78% - - 51° 58.2° 57.3° - - -
4/25 12:00am 200 6 G 10 58° 78% - - 51° 70.1° 57.1° - - -
4/24 11:50pm 205 7 G 13 58° 78% - - 51° 70.1° 57.1° - - -
4/24 11:40pm 208 6 G 10 58° 79% - - 52° 70.1° 57.1° - - -
4/24 11:30pm 227 5 G 11 58° 79% - - 52° 70.1° 57.1° - - -
4/24 11:20pm 215 5 G 9 59° 79% - - 52° 70.1° 57.1° - - -
4/24 11:10pm 215 4 G 7 59° 79% - - 52° 70.1° 57.1° - - -
4/24 11:00pm 212 5 G 10 59° 78% - - 52° 70.1° 57.1° - - -
4/24 10:50pm 207 5 G 8 59° 76% - - 51° 70.1° 57.1° - - -
4/24 10:40pm 199 4 G 7 59° 76% - - 51° 70.1° 57.1° - - -
4/24 10:30pm 199 4 G 7 59° 75% - - 51° 70.1° 57.1° - - -
4/24 10:20pm 191 4 G 7 58° 76% - - 51° 70.1° 57.1° - - -
4/24 10:10pm 193 4 G 9 59° 76% - - 51° 70.1° 57.1° - - -
4/24 10:00pm 197 5 G 9 59° 77% - - 52° 70.1° 57.1° - - -
4/24 9:50pm 199 5 G 10 59° 78% - - 52° 70.1° 57.1° - - -
4/24 9:40pm 189 4 G 7 59° 79% - - 52° 70.1° 57.1° - - -
4/24 9:30pm 199 4 G 9 59° 79% - - 53° 70.1° 57.1° - - -
4/24 9:20pm 224 5 G 8 59° 79% - - 53° 70.1° 57.1° - - -
4/24 9:10pm 196 6 G 8 59° 78% - - 52° 70.1° 57.1° - - -
4/24 9:00pm 209 5 G 8 59° 77% - - 52° 70.1° 57.1° - - -
4/24 8:50pm 243 4 G 7 59° 76% - - 52° 70.1° 57.1° - - -
4/24 8:40pm 241 5 G 7 60° 76% - - 52° 70.1° 57.1° - - -
4/24 8:30pm 241 4 G 7 60° 77% - - 52° 70.1° 57.1° - - -
4/24 8:20pm 228 5 G 9 60° 76% - - 53° 70.1° 57.1° - - -
4/24 8:10pm 218 6 G 9 60° 75% - - 52° 70.1° 57.1° - - -
4/24 8:00pm 227 5 G 8 60° 76% - - 53° 70.1° 57.1° - - -
4/24 7:50pm 222 3 G 7 61° 75% - - 53° 70.1° 57.1° - - -
4/24 7:40pm 230 4 G 9 60° 75% - - 52° 70.1° 57.1° - - -
4/24 7:30pm 241 4 G 7 60° 75% - - 52° 70.1° 57.1° - - -
4/24 7:20pm 249 4 G 7 60° 74% - - 52° 70.1° 57.1° - - -
4/24 7:10pm 261 4 G 8 61° 74% - - 52° 70.1° 57.1° - - -
4/24 7:00pm 262 5 G 8 61° 73% - - 52° 70.1° 57.1° - - -
4/24 6:50pm 251 5 G 8 61° 72% - - 53° 70.1° 57.1° - - -
4/24 6:40pm 250 4 G 8 62° 72% - - 52° 70.1° 57.1° - - -
4/24 6:30pm 251 6 G 11 62° 70% - - 52° 70.1° 57.1° - - -
4/24 6:20pm 248 5 G 9 63° 70% - - 53° 70.1° 57.1° - - -
4/24 6:10pm 230 6 G 11 63° 70% - - 53° 70.1° 57.1° - - -
4/24 6:00pm 242 7 G 12 63° 70% - - 53° 70.1° 57.1° - - -